Time;durP1;ratioP1;P1;durP2;ratioP2;P2;SDS_P1;SDS_P2;PMS_P1;PMS_P2;Temp;Humidity;BMP_temperature;BMP_pressure;BME280_temperature;BME280_humidity;BME280_pressure;Samples;Min_cycle;Max_cycle;Signal;HPM_P1;HPM_P2
2022/08/02 00:01:40;;;;;;;1.70;1.23;;;20.10;99.90;;;;;;5155879;27;20499;-80
2022/08/02 00:04:06;;;;;;;2.78;1.50;;;20.10;99.90;;;;;;5137559;27;20079;-81
2022/08/02 00:06:32;;;;;;;1.65;1.20;;;20.00;99.90;;;;;;5137419;27;20022;-81
2022/08/02 00:08:58;;;;;;;2.47;1.30;;;20.00;99.90;;;;;;5156244;27;20447;-80
2022/08/02 00:11:24;;;;;;;1.85;1.27;;;20.00;99.90;;;;;;5155795;27;20512;-80
2022/08/02 00:13:50;;;;;;;3.22;1.40;;;20.00;99.90;;;;;;5137396;27;20117;-79
2022/08/02 00:16:16;;;;;;;1.52;1.13;;;20.00;99.90;;;;;;5155827;27;20444;-80
2022/08/02 00:18:42;;;;;;;2.58;1.20;;;20.00;99.90;;;;;;5137264;27;20075;-80
2022/08/02 00:21:08;;;;;;;4.10;1.30;;;19.90;99.90;;;;;;5137298;27;20099;-80
2022/08/02 00:23:33;;;;;;;3.05;1.13;;;19.90;99.90;;;;;;5137306;27;20117;-80
2022/08/02 00:25:59;;;;;;;3.95;1.30;;;19.80;99.90;;;;;;5137129;27;20029;-80
2022/08/02 00:28:25;;;;;;;1.73;1.45;;;19.80;99.90;;;;;;5155391;27;20102;-80
2022/08/02 00:30:51;;;;;;;1.55;1.10;;;19.70;99.90;;;;;;5137036;27;20026;-80
2022/08/02 00:33:16;;;;;;;2.13;1.40;;;19.70;99.90;;;;;;5137133;27;20482;-80
2022/08/02 00:35:42;;;;;;;1.80;1.13;;;19.60;99.90;;;;;;5137250;27;20022;-80
2022/08/02 00:38:08;;;;;;;1.23;1.20;;;19.60;99.90;;;;;;5137073;27;20045;-80
2022/08/02 00:40:34;;;;;;;3.10;1.20;;;19.60;99.90;;;;;;5136692;27;20061;-80
2022/08/02 00:43:06;;;;;;;1.70;1.35;;;19.60;99.90;;;;;;5155602;27;20027;-80
2022/08/02 00:45:32;;;;;;;1.95;0.98;;;19.60;99.90;;;;;;5137286;27;20027;-79
2022/08/02 00:47:58;;;;;;;1.70;1.23;;;19.60;99.90;;;;;;5155115;27;20026;-80
2022/08/02 00:50:24;;;;;;;1.45;1.10;;;19.50;99.90;;;;;;5137057;27;20023;-80
2022/08/02 00:52:50;;;;;;;3.45;2.13;;;19.50;99.90;;;;;;5155313;27;20099;-80
2022/08/02 00:55:16;;;;;;;1.45;1.30;;;19.50;99.90;;;;;;5136800;27;20460;-80
2022/08/02 00:57:41;;;;;;;1.27;1.13;;;19.40;99.90;;;;;;5155302;27;20098;-80
2022/08/02 01:00:08;;;;;;;1.25;1.15;;;19.40;99.90;;;;;;5155054;27;20023;-80
2022/08/02 01:02:34;;;;;;;1.95;1.20;;;19.40;99.90;;;;;;5136758;27;20031;-80
2022/08/02 01:04:59;;;;;;;3.58;1.20;;;19.30;99.90;;;;;;5155185;27;20019;-80
2022/08/02 01:07:25;;;;;;;1.35;1.20;;;19.30;99.90;;;;;;5136734;27;20189;-80
2022/08/02 01:09:52;;;;;;;0.95;0.95;;;19.30;99.90;;;;;;5137006;27;20073;-80
2022/08/02 01:12:18;;;;;;;0.95;0.95;;;19.30;99.90;;;;;;5136592;27;20030;-80
2022/08/02 01:14:48;;;;;;;1.00;0.90;;;19.30;99.90;;;;;;5137171;27;20092;-80
2022/08/02 01:17:33;;;;;;;1.30;0.95;;;19.30;99.90;;;;;;5155463;27;20023;-80
2022/08/02 01:20:22;;;;;;;1.35;1.10;;;19.30;99.90;;;;;;5136822;27;20014;-80
2022/08/02 01:22:57;;;;;;;0.80;0.80;;;19.30;99.90;;;;;;5136635;27;20026;-80
2022/08/02 01:25:41;;;;;;;0.80;0.80;;;19.30;99.90;;;;;;5136588;27;20379;-80
2022/08/02 01:28:21;;;;;;;1.90;0.90;;;19.30;99.90;;;;;;5137024;27;20412;-80
2022/08/02 01:30:55;;;;;;;0.90;0.90;;;19.30;99.90;;;;;;5154676;27;20391;-80
2022/08/02 01:33:25;;;;;;;1.45;0.90;;;19.30;99.90;;;;;;5136464;27;20459;-80
2022/08/02 01:35:53;;;;;;;1.25;1.05;;;19.30;99.90;;;;;;5136738;27;20023;-80
2022/08/02 01:38:26;;;;;;;1.35;1.10;;;19.40;99.90;;;;;;5136372;27;20030;-80
2022/08/02 01:40:53;;;;;;;2.10;0.85;;;19.40;99.90;;;;;;5136380;27;20102;-79
2022/08/02 01:43:21;;;;;;;3.72;1.48;;;19.40;99.90;;;;;;5136377;27;20152;-80
2022/08/02 01:45:47;;;;;;;1.00;0.93;;;19.40;99.90;;;;;;5136505;27;20034;-80
2022/08/02 01:48:15;;;;;;;2.95;1.02;;;19.40;99.90;;;;;;5136290;27;20022;-80
2022/08/02 01:50:42;;;;;;;1.98;1.00;;;19.40;99.90;;;;;;5136300;27;20464;-79
2022/08/02 01:53:10;;;;;;;1.25;1.00;;;19.40;99.90;;;;;;5136268;27;20027;-80
2022/08/02 01:55:43;;;;;;;1.00;0.88;;;19.40;99.90;;;;;;5138570;27;20079;-80
2022/08/02 01:58:13;;;;;;;1.08;0.90;;;19.40;99.90;;;;;;5139922;27;20019;-80
2022/08/02 02:00:40;;;;;;;1.73;0.85;;;19.40;99.90;;;;;;5158681;27;20023;-79
2022/08/02 02:03:12;;;;;;;2.88;1.00;;;19.40;99.90;;;;;;5158062;27;20079;-79
2022/08/02 02:05:39;;;;;;;1.00;0.88;;;19.40;99.90;;;;;;5158070;27;20371;-79
2022/08/02 02:08:07;;;;;;;1.35;1.00;;;19.40;99.90;;;;;;5139690;27;20110;-80
2022/08/02 02:10:37;;;;;;;1.20;1.10;;;19.30;99.90;;;;;;5139626;27;20025;-79
2022/08/02 02:13:06;;;;;;;1.25;1.02;;;19.30;99.90;;;;;;5140011;27;20038;-79
2022/08/02 02:15:34;;;;;;;1.20;1.15;;;19.30;99.90;;;;;;5139742;27;20019;-80
2022/08/02 02:18:02;;;;;;;1.02;1.02;;;19.20;99.90;;;;;;5139659;27;20046;-80
2022/08/02 02:20:28;;;;;;;3.17;1.00;;;19.20;99.90;;;;;;5140027;27;20371;-80
2022/08/02 02:22:54;;;;;;;1.30;1.15;;;19.20;99.90;;;;;;5139455;27;20054;-80
2022/08/02 02:25:21;;;;;;;3.50;1.10;;;19.20;99.90;;;;;;5157911;27;20525;-79
2022/08/02 02:28:07;;;;;;;1.48;1.10;;;19.20;99.90;;;;;;5139830;27;20054;-80
2022/08/02 02:30:33;;;;;;;1.73;1.08;;;19.20;99.90;;;;;;5139324;27;20019;-80
2022/08/02 02:33:01;;;;;;;1.27;1.13;;;19.10;99.90;;;;;;5157888;27;20384;-80
2022/08/02 02:35:30;;;;;;;1.85;1.17;;;19.10;99.90;;;;;;5139323;27;20053;-80
2022/08/02 02:37:57;;;;;;;;;;;19.00;99.90;;;;;;5157797;27;20062;-79
2022/08/02 02:40:25;;;;;;;1.00;0.90;;;19.00;99.90;;;;;;5138760;27;19919;-80
2022/08/02 02:42:51;;;;;;;1.13;1.02;;;18.90;99.90;;;;;;5139019;27;20052;-80
2022/08/02 02:45:20;;;;;;;1.00;1.00;;;18.90;99.90;;;;;;5139340;27;20027;-80
2022/08/02 02:47:48;;;;;;;1.33;1.00;;;18.80;99.90;;;;;;5139015;27;20033;-80
2022/08/02 02:50:15;;;;;;;6.28;1.33;;;18.80;99.90;;;;;;5157435;27;20253;-80
2022/08/02 02:52:42;;;;;;;1.02;1.02;;;18.70;99.90;;;;;;5157261;27;20034;-80
2022/08/02 02:55:09;;;;;;;4.15;1.70;;;18.60;99.90;;;;;;5138709;27;20031;-80
2022/08/02 02:57:36;;;;;;;1.60;1.50;;;18.50;99.90;;;;;;5139117;27;20023;-80
2022/08/02 03:00:11;;;;;;;2.97;1.77;;;18.40;99.90;;;;;;5157247;27;20076;-80
2022/08/02 03:02:42;;;;;;;1.65;1.15;;;18.40;99.90;;;;;;5157921;27;20030;-80
2022/08/02 03:05:10;;;;;;;1.08;1.08;;;18.30;99.90;;;;;;5138514;27;20398;-79
2022/08/02 03:07:37;;;;;;;4.10;1.40;;;18.30;99.90;;;;;;5156865;27;20499;-79
2022/08/02 03:10:05;;;;;;;2.63;1.00;;;18.20;99.90;;;;;;5138461;27;20027;-80
2022/08/02 03:12:32;;;;;;;1.33;1.13;;;18.20;99.90;;;;;;5138550;27;20033;-80
2022/08/02 03:15:01;;;;;;;2.35;1.38;;;18.10;99.90;;;;;;5138352;27;20122;-80
2022/08/02 03:17:40;;;;;;;1.45;1.35;;;18.00;99.90;;;;;;5137929;27;20076;-79
2022/08/02 03:20:13;;;;;;;1.17;1.10;;;18.00;99.90;;;;;;5138657;27;20040;-80
2022/08/02 03:22:39;;;;;;;5.25;1.40;;;18.00;99.90;;;;;;5156851;27;20367;-80
2022/08/02 03:25:06;;;;;;;1.40;1.30;;;17.90;99.90;;;;;;5138617;27;20034;-80
2022/08/02 03:27:32;;;;;;;1.25;1.00;;;17.90;99.90;;;;;;5138389;27;20027;-81
2022/08/02 03:29:58;;;;;;;2.80;1.30;;;17.80;99.90;;;;;;5138180;27;20046;-79
2022/08/02 03:32:23;;;;;;;1.67;1.23;;;17.80;99.90;;;;;;5138077;27;20031;-81
2022/08/02 03:34:49;;;;;;;1.42;1.10;;;17.80;99.90;;;;;;5137956;27;20035;-80
2022/08/02 03:37:15;;;;;;;1.35;0.93;;;17.80;99.90;;;;;;5138138;27;20042;-81
2022/08/02 03:39:42;;;;;;;1.23;1.17;;;17.90;99.90;;;;;;5137977;27;20075;-80
2022/08/02 03:42:08;;;;;;;5.80;2.38;;;17.90;99.90;;;;;;5137934;27;20026;-79
2022/08/02 03:44:36;;;;;;;1.08;1.08;;;17.90;99.90;;;;;;5138149;27;20072;-80
2022/08/02 03:47:02;;;;;;;2.73;1.50;;;17.80;99.90;;;;;;5137831;27;20383;-80
2022/08/02 03:49:30;;;;;;;1.73;1.10;;;17.80;99.90;;;;;;5156542;27;20040;-80
2022/08/02 03:51:57;;;;;;;2.53;1.23;;;17.70;99.90;;;;;;5137621;27;20483;-80
2022/08/02 03:54:24;;;;;;;1.25;1.13;;;17.80;99.90;;;;;;5156229;27;20252;-79
2022/08/02 03:56:50;;;;;;;2.60;2.08;;;17.80;99.90;;;;;;5155928;27;20101;-81
2022/08/02 03:59:16;;;;;;;0.82;0.75;;;17.80;99.90;;;;;;5137563;27;20477;-80
2022/08/02 04:01:42;;;;;;;1.00;1.00;;;17.90;99.90;;;;;;5137597;27;20062;-80
2022/08/02 04:04:08;;;;;;;1.02;0.80;;;18.00;99.90;;;;;;5155846;27;20097;-80
2022/08/02 04:06:34;;;;;;;1.90;1.10;;;18.10;99.90;;;;;;5137418;27;20068;-80
2022/08/02 04:09:00;;;;;;;0.95;0.90;;;18.20;99.90;;;;;;5137519;27;20026;-80
2022/08/02 04:11:32;;;;;;;2.42;1.05;;;18.30;99.90;;;;;;5137317;27;20102;-80
2022/08/02 04:14:06;;;;;;;2.95;1.05;;;18.30;99.90;;;;;;5137315;27;20026;-80
2022/08/02 04:16:39;;;;;;;0.95;0.85;;;18.40;99.90;;;;;;5137214;27;20019;-80
2022/08/02 04:19:08;;;;;;;1.17;1.10;;;18.40;99.90;;;;;;5154875;27;20471;-80
2022/08/02 04:21:39;;;;;;;;;;;18.50;99.90;;;;;;5137904;27;20033;-80
2022/08/02 04:24:06;;;;;;;1.20;1.10;;;18.50;99.90;;;;;;5137705;27;19951;-80
2022/08/02 04:26:33;;;;;;;0.75;0.73;;;18.60;99.90;;;;;;5137826;27;20033;-80
2022/08/02 04:29:00;;;;;;;1.35;1.25;;;18.60;99.90;;;;;;5137671;27;20037;-80
2022/08/02 04:31:26;;;;;;;1.00;0.95;;;18.70;99.90;;;;;;5137559;27;20121;-80
2022/08/02 04:33:52;;;;;;;5.13;0.85;;;18.70;99.90;;;;;;5139440;27;20528;-80
2022/08/02 04:36:18;;;;;;;1.40;1.30;;;18.80;99.90;;;;;;5139410;27;20137;-81
2022/08/02 04:38:43;;;;;;;2.22;0.88;;;18.90;99.90;;;;;;5137824;27;20056;-69
2022/08/02 04:41:09;;;;;;;1.52;0.98;;;18.90;99.90;;;;;;5133459;28;20502;-69
2022/08/02 04:43:35;;;;;;;1.10;0.73;;;19.00;99.90;;;;;;5135602;28;20027;-72
2022/08/02 04:46:01;;;;;;;1.92;1.10;;;19.10;99.90;;;;;;5134787;27;20027;-70
2022/08/02 04:48:27;;;;;;;0.80;0.80;;;19.10;99.90;;;;;;5133315;28;20071;-70
2022/08/02 04:50:53;;;;;;;1.50;1.13;;;19.20;99.90;;;;;;5134533;27;20030;-62
2022/08/02 04:53:19;;;;;;;2.08;0.95;;;19.20;99.90;;;;;;5134873;27;20027;-71
2022/08/02 04:55:46;;;;;;;1.42;1.15;;;19.30;99.90;;;;;;5132953;28;20040;-70
2022/08/02 04:58:12;;;;;;;1.20;1.10;;;19.40;99.90;;;;;;5133198;28;20068;-71
2022/08/02 05:00:38;;;;;;;1.10;1.10;;;19.40;99.90;;;;;;5133271;28;20046;-70
2022/08/02 05:03:03;;;;;;;2.00;1.00;;;19.60;99.90;;;;;;5134621;28;20384;-72
2022/08/02 05:05:29;;;;;;;1.95;0.90;;;19.70;99.90;;;;;;5133219;28;20023;-70
2022/08/02 05:07:55;;;;;;;1.08;0.90;;;19.80;99.90;;;;;;5134718;27;20024;-70
2022/08/02 05:10:21;;;;;;;0.70;0.70;;;19.90;99.90;;;;;;5134438;27;20361;-61
2022/08/02 05:12:47;;;;;;;0.93;0.93;;;20.00;99.90;;;;;;5134060;27;20361;-63
2022/08/02 05:15:15;;;;;;;1.55;1.00;;;20.20;99.90;;;;;;5134001;27;20035;-64
2022/08/02 05:17:41;;;;;;;1.25;1.13;;;20.30;99.90;;;;;;5134339;27;20019;-64
2022/08/02 05:20:08;;;;;;;1.10;1.00;;;20.40;99.90;;;;;;5134330;27;20082;-64
2022/08/02 05:22:33;;;;;;;0.98;0.98;;;20.60;99.90;;;;;;5134006;27;20058;-62
2022/08/02 05:24:59;;;;;;;1.00;1.00;;;20.70;99.90;;;;;;5134991;28;20059;-63
2022/08/02 05:27:24;;;;;;;2.92;1.10;;;20.90;99.90;;;;;;5132913;28;20023;-61
2022/08/02 05:29:50;;;;;;;1.92;0.82;;;21.00;99.90;;;;;;5135416;27;20015;-63
2022/08/02 05:32:17;;;;;;;1.00;0.98;;;21.10;99.90;;;;;;5138080;27;20038;-63
2022/08/02 05:34:43;;;;;;;4.93;1.58;;;21.30;99.90;;;;;;5138155;27;20037;-64
2022/08/02 05:37:09;;;;;;;1.95;1.38;;;21.50;99.90;;;;;;5136812;27;20031;-64
2022/08/02 05:39:34;;;;;;;1.23;1.00;;;21.60;99.90;;;;;;5137712;27;20038;-64
2022/08/02 05:42:00;;;;;;;1.15;0.88;;;21.70;99.90;;;;;;5158207;27;20051;-63
2022/08/02 05:44:26;;;;;;;1.30;1.20;;;21.80;99.90;;;;;;5140178;27;20075;-64
2022/08/02 05:46:51;;;;;;;1.80;1.25;;;21.90;99.90;;;;;;5159214;27;20367;-64
2022/08/02 05:49:17;;;;;;;1.52;0.98;;;22.00;99.90;;;;;;5139970;27;20080;-64
2022/08/02 05:52:17;;;;;;;1.05;1.00;;;22.00;99.90;;;;;;5139732;27;20459;-64
2022/08/02 05:55:06;;;;;;;2.38;1.23;;;22.10;99.90;;;;;;5118136;27;20486;-64
2022/08/02 05:58:01;;;;;;;3.95;1.35;;;22.10;99.90;;;;;;5140277;27;20019;-64
2022/08/02 06:00:32;;;;;;;2.63;1.00;;;22.20;99.90;;;;;;5158446;27;20375;-63
2022/08/02 06:03:15;;;;;;;2.03;0.95;;;22.20;99.90;;;;;;5158394;27;20026;-59
2022/08/02 06:05:47;;;;;;;2.80;1.13;;;22.20;99.90;;;;;;5139762;27;20019;-59
2022/08/02 06:08:13;;;;;;;3.25;1.23;;;22.20;99.90;;;;;;5157964;27;20438;-59
2022/08/02 06:10:40;;;;;;;2.17;1.92;;;22.00;99.90;;;;;;5158046;27;20026;-60
2022/08/02 06:13:09;;;;;;;1.67;1.52;;;21.60;99.90;;;;;;5158374;27;20117;-59
2022/08/02 06:15:39;;;;;;;1.27;1.17;;;21.90;99.90;;;;;;5157979;27;20026;-59
2022/08/02 06:18:06;;;;;;;3.40;0.93;;;21.80;99.90;;;;;;5157753;27;20031;-59
2022/08/02 06:20:36;;;;;;;4.20;1.10;;;21.70;99.90;;;;;;5157746;27;20019;-59
2022/08/02 06:23:06;;;;;;;4.82;1.58;;;21.70;99.90;;;;;;5157882;27;20360;-59
2022/08/02 06:25:34;;;;;;;1.15;1.05;;;21.70;99.90;;;;;;5139293;27;20091;-59
2022/08/02 06:28:03;;;;;;;2.63;1.40;;;21.60;99.90;;;;;;5157765;27;20018;-59
2022/08/02 06:30:30;;;;;;;2.28;1.20;;;21.60;99.90;;;;;;5157682;27;20540;-79
2022/08/02 06:32:55;;;;;;;1.40;1.25;;;21.60;99.90;;;;;;5138995;27;20050;-81
2022/08/02 06:35:25;;;;;;;2.47;1.52;;;21.60;99.90;;;;;;5139462;27;20079;-59
2022/08/02 06:37:57;;;;;;;2.85;1.25;;;21.50;99.90;;;;;;5157611;27;20023;-59
2022/08/02 06:40:23;;;;;;;2.47;1.27;;;21.60;99.90;;;;;;5156989;27;20042;-59
2022/08/02 06:43:12;;;;;;;2.30;1.42;;;21.60;99.90;;;;;;5158060;27;20087;-59
2022/08/02 06:45:39;;;;;;;1.20;1.20;;;21.60;99.90;;;;;;5139095;27;20026;-59
2022/08/02 06:48:06;;;;;;;1.52;1.38;;;21.60;99.90;;;;;;5157302;27;20026;-59
2022/08/02 06:50:33;;;;;;;2.03;1.45;;;21.60;99.90;;;;;;5157211;27;20058;-59
2022/08/02 06:52:59;;;;;;;2.20;1.38;;;21.70;99.90;;;;;;5157086;27;20041;-59
2022/08/02 06:55:26;;;;;;;1.17;1.10;;;21.70;99.90;;;;;;5157363;27;20376;-59
2022/08/02 06:57:52;;;;;;;1.30;1.20;;;21.70;99.90;;;;;;5157176;27;20052;-59
2022/08/02 07:00:17;;;;;;;1.38;1.10;;;21.70;99.90;;;;;;5157191;27;20023;-59
2022/08/02 07:02:43;;;;;;;1.45;1.27;;;21.70;99.90;;;;;;5156816;27;20029;-59
2022/08/02 07:05:09;;;;;;;1.52;1.10;;;21.70;99.90;;;;;;5157176;27;20018;-59
2022/08/02 07:07:34;;;;;;;3.05;1.27;;;21.80;99.90;;;;;;5138564;27;20064;-60
2022/08/02 07:10:00;;;;;;;3.25;1.40;;;21.80;99.90;;;;;;5157166;27;20022;-60
2022/08/02 07:12:27;;;;;;;3.95;1.38;;;21.90;99.90;;;;;;5156925;27;20369;-75
2022/08/02 07:14:53;;;;;;;2.58;1.30;;;21.90;99.90;;;;;;5138734;27;20375;-75
2022/08/02 07:17:19;;;;;;;3.55;1.23;;;21.90;99.90;;;;;;5138288;27;20121;-75
2022/08/02 07:19:44;;;;;;;1.85;1.23;;;21.90;99.90;;;;;;5156800;27;20062;-75
2022/08/02 07:22:11;;;;;;;4.30;1.50;;;21.90;99.90;;;;;;5138136;27;20069;-75
2022/08/02 07:24:38;;;;;;;3.13;1.38;;;22.00;99.90;;;;;;5156410;27;20189;-75
2022/08/02 07:27:04;;;;;;;1.65;1.30;;;22.00;99.90;;;;;;5156600;27;20034;-75
2022/08/02 07:29:30;;;;;;;1.73;1.33;;;22.10;99.90;;;;;;5137973;27;20452;-75
2022/08/02 07:31:55;;;;;;;1.50;1.40;;;22.20;99.90;;;;;;5156317;27;20034;-75
2022/08/02 07:34:21;;;;;;;1.17;1.15;;;22.20;99.90;;;;;;5156251;27;20071;-75
2022/08/02 07:36:47;;;;;;;1.38;1.27;;;22.20;99.90;;;;;;5156462;27;20014;-75
2022/08/02 07:39:12;;;;;;;1.60;1.33;;;22.30;99.90;;;;;;5138121;27;20371;-75
2022/08/02 07:41:38;;;;;;;3.80;1.65;;;22.30;99.90;;;;;;5156551;27;20046;-75
2022/08/02 07:44:04;;;;;;;2.03;1.85;;;22.40;99.90;;;;;;5138277;27;20495;-75
2022/08/02 07:46:32;;;;;;;2.28;1.20;;;22.40;99.90;;;;;;5156312;27;20054;-75
2022/08/02 07:48:58;;;;;;;2.67;1.58;;;22.50;99.90;;;;;;5137714;27;20023;-75
2022/08/02 07:51:23;;;;;;;1.45;1.30;;;22.60;99.90;;;;;;5156289;27;20034;-75
2022/08/02 07:53:49;;;;;;;4.43;1.40;;;22.80;99.90;;;;;;5155375;27;20058;-75
2022/08/02 07:56:15;;;;;;;1.52;1.40;;;23.10;99.90;;;;;;5137537;27;20065;-75
2022/08/02 07:58:41;;;;;;;1.48;1.38;;;23.30;99.90;;;;;;5137524;27;20034;-75
2022/08/02 08:01:07;;;;;;;1.45;1.25;;;23.30;99.90;;;;;;5156028;27;20038;-75
2022/08/02 08:03:33;;;;;;;1.60;1.20;;;23.40;99.90;;;;;;5137410;27;20456;-73
2022/08/02 08:05:59;;;;;;;1.30;1.20;;;23.40;99.90;;;;;;5155967;27;20030;-73
2022/08/02 08:08:25;;;;;;;1.80;1.50;;;23.50;99.90;;;;;;5137311;27;20568;-73
2022/08/02 08:10:50;;;;;;;1.30;1.20;;;23.50;99.90;;;;;;5155985;27;20026;-73
2022/08/02 08:13:16;;;;;;;1.67;1.48;;;23.60;99.90;;;;;;5156060;27;20027;-72
2022/08/02 08:15:43;;;;;;;3.00;1.38;;;23.80;99.90;;;;;;5155555;27;20023;-73
2022/08/02 08:18:08;;;;;;;3.20;1.60;;;23.80;99.90;;;;;;5155559;27;20022;-76
2022/08/02 08:20:34;;;;;;;1.83;1.73;;;23.60;99.90;;;;;;5154364;27;20379;-76
2022/08/02 08:23:00;;;;;;;2.85;1.58;;;23.50;99.90;;;;;;5154730;27;20109;-74
2022/08/02 08:25:25;;;;;;;1.60;1.50;;;23.50;99.90;;;;;;5154380;27;20026;-76
2022/08/02 08:27:52;;;;;;;4.82;2.30;;;23.50;99.90;;;;;;5155367;27;20491;-76
2022/08/02 08:30:19;;;;;;;11.13;2.88;;;23.50;99.90;;;;;;5154740;27;20031;-77
2022/08/02 08:32:45;;;;;;;9.20;4.43;;;23.50;99.90;;;;;;5155532;27;20023;-76
2022/08/02 08:35:11;;;;;;;100.18;24.50;;;23.50;99.90;;;;;;5154204;27;20027;-77
2022/08/02 08:37:38;;;;;;;20.27;10.05;;;23.70;99.90;;;;;;5154153;27;20027;-77
2022/08/02 08:40:10;;;;;;;4.47;2.72;;;23.90;99.90;;;;;;5154322;27;20137;-73
2022/08/02 08:42:38;;;;;;;3.10;1.10;;;24.10;99.90;;;;;;5153785;27;20027;-72
2022/08/02 08:45:05;;;;;;;2.03;1.20;;;24.10;99.90;;;;;;5155250;27;20023;-72
2022/08/02 08:47:37;;;;;;;1.52;1.42;;;24.20;99.90;;;;;;5155395;27;20038;-72
2022/08/02 08:50:05;;;;;;;1.95;1.02;;;24.20;99.90;;;;;;5155622;27;20019;-74
2022/08/02 08:52:35;;;;;;;1.35;1.23;;;24.50;99.90;;;;;;5154981;27;20388;-73
2022/08/02 08:55:03;;;;;;;1.05;1.05;;;25.10;99.90;;;;;;5154623;27;20117;-73
2022/08/02 08:57:31;;;;;;;1.25;0.90;;;25.90;99.90;;;;;;5154046;27;20118;-76
2022/08/02 08:59:57;;;;;;;2.72;0.98;;;26.80;99.90;;;;;;5155728;27;20070;-73
2022/08/02 09:02:23;;;;;;;0.95;0.88;;;27.60;98.40;;;;;;5154004;27;20034;-74
2022/08/02 09:04:49;;;;;;;0.93;0.93;;;28.00;97.20;;;;;;5157078;27;20027;-76
2022/08/02 09:07:15;;;;;;;1.50;1.40;;;28.30;95.70;;;;;;5159653;27;20027;-77
2022/08/02 09:09:40;;;;;;;3.50;0.90;;;28.60;94.90;;;;;;5159870;27;20527;-77
2022/08/02 09:12:16;;;;;;;2.05;0.90;;;29.00;93.20;;;;;;5159006;27;20030;-74
2022/08/02 09:14:42;;;;;;;0.98;0.57;;;29.00;92.60;;;;;;5158052;27;20034;-74
2022/08/02 09:17:11;;;;;;;2.05;0.70;;;29.10;91.40;;;;;;5158023;27;20023;-75
2022/08/02 09:19:37;;;;;;;1.05;0.70;;;29.30;90.90;;;;;;5159082;27;20079;-74
2022/08/02 09:22:06;;;;;;;1.65;0.82;;;29.60;89.50;;;;;;5158856;27;20391;-74
2022/08/02 09:24:50;;;;;;;1.95;0.60;;;29.90;88.80;;;;;;5158171;27;20026;-74
2022/08/02 09:27:21;;;;;;;3.33;0.93;;;30.50;86.60;;;;;;5158084;27;20054;-73
2022/08/02 09:29:52;;;;;;;0.80;0.80;;;31.10;82.10;;;;;;5157761;27;20023;-76
2022/08/02 09:32:18;;;;;;;1.40;0.93;;;31.00;79.60;;;;;;5157720;27;20030;-73
2022/08/02 09:34:52;;;;;;;0.90;0.80;;;31.20;78.40;;;;;;5158960;27;20424;-75
2022/08/02 09:37:29;;;;;;;1.75;0.80;;;31.30;77.20;;;;;;5157614;27;20027;-75
2022/08/02 09:39:58;;;;;;;0.82;0.82;;;31.30;75.60;;;;;;5158636;27;20348;-74
2022/08/02 09:42:24;;;;;;;0.90;0.90;;;31.30;75.50;;;;;;5157637;27;20031;-73
2022/08/02 09:45:00;;;;;;;2.20;0.60;;;31.60;74.40;;;;;;5157461;27;20019;-75
2022/08/02 09:47:27;;;;;;;0.70;0.70;;;32.20;71.70;;;;;;5159286;27;20027;-76
2022/08/02 09:49:54;;;;;;;0.60;0.60;;;32.30;70.10;;;;;;5158258;27;20480;-76
2022/08/02 09:52:28;;;;;;;1.02;0.95;;;32.60;68.90;;;;;;5158617;27;20027;-76
2022/08/02 09:54:54;;;;;;;1.13;0.73;;;32.90;66.30;;;;;;5158345;27;20054;-75
2022/08/02 09:57:27;;;;;;;0.68;0.68;;;33.50;64.50;;;;;;5158637;27;20023;-75
2022/08/02 09:59:57;;;;;;;0.52;0.52;;;33.80;62.90;;;;;;5157187;27;20027;-76
2022/08/02 10:02:23;;;;;;;0.75;0.60;;;33.70;61.80;;;;;;5157165;27;20117;-75
2022/08/02 10:04:48;;;;;;;1.63;0.80;;;33.40;61.90;;;;;;5158953;27;20463;-75
2022/08/02 10:07:16;;;;;;;0.60;0.60;;;32.90;62.80;;;;;;5158172;27;20054;-75
2022/08/02 10:09:44;;;;;;;1.95;0.50;;;33.10;62.10;;;;;;5160634;27;20031;-76
2022/08/02 10:12:11;;;;;;;3.42;0.60;;;33.20;60.20;;;;;;5158398;27;20048;-76
2022/08/02 10:14:37;;;;;;;1.45;0.95;;;33.10;59.50;;;;;;5158533;27;20424;-74
2022/08/02 10:17:06;;;;;;;0.73;0.50;;;32.50;60.00;;;;;;5157522;27;20046;-73
2022/08/02 10:19:33;;;;;;;0.95;0.43;;;32.10;60.00;;;;;;5156759;27;20023;-75
2022/08/02 10:22:10;;;;;;;0.77;0.70;;;32.40;61.30;;;;;;5156790;27;20033;-75
2022/08/02 10:24:38;;;;;;;1.85;0.60;;;32.90;59.20;;;;;;5158108;27;20023;-73
2022/08/02 10:27:11;;;;;;;0.60;0.60;;;33.00;57.50;;;;;;5156325;27;20025;-73
2022/08/02 10:29:39;;;;;;;3.03;0.50;;;32.70;58.60;;;;;;5157909;27;20023;-75
2022/08/02 10:32:45;;;;;;;2.10;0.60;;;33.20;58.00;;;;;;5156246;27;20080;-73
2022/08/02 10:35:18;;;;;;;1.80;0.38;;;33.60;56.60;;;;;;5141355;27;20035;-73
2022/08/02 10:37:46;;;;;;;0.52;0.52;;;33.20;56.30;;;;;;5157583;27;20083;-76
2022/08/02 10:40:27;;;;;;;0.75;0.50;;;32.90;57.00;;;;;;5157748;27;20042;-75
2022/08/02 10:42:58;;;;;;;0.40;0.40;;;33.10;57.50;;;;;;5156923;27;20053;-76
2022/08/02 10:45:24;;;;;;;0.82;0.57;;;33.90;54.80;;;;;;5157996;27;20055;-81
2022/08/02 10:48:15;;;;;;;0.40;0.40;;;33.60;55.30;;;;;;5157175;27;20041;-79
2022/08/02 10:50:44;;;;;;;0.82;0.40;;;33.10;55.50;;;;;;5151056;27;20041;-79
2022/08/02 10:53:24;;;;;;;0.38;0.38;;;33.20;55.70;;;;;;5156448;27;20062;-80
2022/08/02 10:55:52;;;;;;;0.47;0.47;;;33.40;56.00;;;;;;5157357;27;20027;-80
2022/08/02 10:58:18;;;;;;;0.70;0.50;;;33.10;55.90;;;;;;5156998;27;20417;-80
2022/08/02 11:00:44;;;;;;;1.65;0.93;;;32.80;55.70;;;;;;5155856;27;20080;-80
2022/08/02 11:03:28;;;;;;;1.90;0.70;;;31.50;64.40;;;;;;5155832;27;20031;-77
2022/08/02 11:06:08;;;;;;;1.42;0.50;;;33.70;58.50;;;;;;5157044;27;20026;-78
2022/08/02 11:08:34;;;;;;;2.55;0.60;;;35.30;54.70;;;;;;5157344;27;20022;-76
2022/08/02 11:11:09;;;;;;;2.95;0.73;;;35.40;54.20;;;;;;5157016;27;20027;-74
2022/08/02 11:14:07;;;;;;;1.63;0.60;;;35.70;53.30;;;;;;5157174;27;20137;-75
2022/08/02 11:16:54;;;;;;;0.52;0.50;;;36.00;52.60;;;;;;5156994;27;20026;-75
2022/08/02 11:19:24;;;;;;;1.43;0.80;;;36.00;52.80;;;;;;5156969;27;20106;-75
2022/08/02 11:22:05;;;;;;;0.55;0.55;;;35.20;53.40;;;;;;5155589;27;20467;-74
2022/08/02 11:24:34;;;;;;;3.90;1.60;;;36.00;52.20;;;;;;5156380;27;20027;-75
2022/08/02 11:27:02;;;;;;;1.50;1.05;;;36.40;51.60;;;;;;5156796;27;20041;-78
2022/08/02 11:29:38;;;;;;;1.40;1.40;;;36.60;51.80;;;;;;5156738;27;20023;-76
2022/08/02 11:32:15;;;;;;;0.88;0.70;;;36.70;50.30;;;;;;5156733;27;20039;-76
2022/08/02 11:34:42;;;;;;;1.75;0.70;;;36.20;50.50;;;;;;5156776;27;20067;-75
2022/08/02 11:37:08;;;;;;;0.70;0.70;;;;;;;;;;5156642;27;20363;-76
2022/08/02 11:39:33;;;;;;;0.82;0.60;;;36.60;49.80;;;;;;5156603;27;20102;-74
2022/08/02 11:42:00;;;;;;;2.42;0.68;;;36.20;50.60;;;;;;5156837;27;20108;-75
2022/08/02 11:44:27;;;;;;;0.57;0.55;;;36.90;50.30;;;;;;5155124;27;20026;-75
2022/08/02 11:46:57;;;;;;;1.67;0.70;;;36.80;49.40;;;;;;5156345;27;20066;-77
2022/08/02 11:49:23;;;;;;;0.43;0.43;;;36.60;48.60;;;;;;5156556;27;20037;-75
2022/08/02 11:52:04;;;;;;;0.55;0.55;;;36.50;48.80;;;;;;5156250;27;20383;-78
2022/08/02 11:54:41;;;;;;;2.10;0.90;;;36.90;48.00;;;;;;5156280;27;20027;-75
2022/08/02 11:57:17;;;;;;;0.50;0.50;;;36.00;48.70;;;;;;5156263;27;20459;-76
2022/08/02 11:59:44;;;;;;;0.60;0.60;;;36.40;48.90;;;;;;5155781;27;20781;-76
2022/08/02 12:02:11;;;;;;;0.35;0.35;;;36.70;48.30;;;;;;5155986;27;20027;-76
2022/08/02 12:04:38;;;;;;;0.57;0.40;;;37.00;47.10;;;;;;5156035;27;20030;-78
2022/08/02 12:07:05;;;;;;;0.50;0.50;;;36.90;47.30;;;;;;5155098;27;20022;-75
2022/08/02 12:09:33;;;;;;;2.05;0.70;;;37.00;46.30;;;;;;5154751;27;20452;-74
2022/08/02 12:11:59;;;;;;;1.08;0.60;;;37.40;46.20;;;;;;5154865;27;20035;-73
2022/08/02 12:14:27;;;;;;;0.40;0.40;;;36.80;46.70;;;;;;5155573;27;20387;-73
2022/08/02 12:19:38;;;;;;;1.33;0.45;;;36.60;46.60;;;;;;5155763;27;20038;-73
2022/08/02 12:22:08;;;;;;;0.80;0.55;;;35.40;49.00;;;;;;5155570;27;20523;-72
2022/08/02 12:24:35;;;;;;;1.10;0.50;;;35.00;49.30;;;;;;5155764;27;20097;-70
2022/08/02 12:27:01;;;;;;;0.63;0.50;;;34.80;48.70;;;;;;5155699;27;20107;-71
2022/08/02 12:29:35;;;;;;;2.10;0.68;;;35.10;48.70;;;;;;5156331;27;20072;-73
2022/08/02 12:32:02;;;;;;;0.40;0.40;;;36.00;47.10;;;;;;5155623;27;20083;-74
2022/08/02 12:34:29;;;;;;;2.38;0.60;;;34.70;48.50;;;;;;5154272;27;20067;-74
2022/08/02 12:37:09;;;;;;;2.60;0.50;;;34.40;49.10;;;;;;5154528;27;20022;-76
2022/08/02 12:39:41;;;;;;;0.68;0.60;;;35.30;48.30;;;;;;5154594;27;20050;-88
2022/08/02 12:42:09;;;;;;;0.73;0.40;;;35.70;47.30;;;;;;5155253;27;20043;-86
2022/08/02 12:44:53;;;;;;;1.65;0.73;;;36.00;46.90;;;;;;5155118;27;20113;-86
2022/08/02 12:47:22;;;;;;;0.65;0.47;;;36.20;44.50;;;;;;5155362;27;20436;-86
2022/08/02 12:50:39;;;;;;;1.27;0.63;;;35.70;45.30;;;;;;5155344;27;20034;-87
2022/08/02 12:53:13;;;;;;;1.80;0.50;;;36.10;45.40;;;;;;5098875;27;20479;-87
2022/08/02 12:55:54;;;;;;;2.53;0.38;;;36.70;45.30;;;;;;5155026;27;20061;-86
2022/08/02 12:58:20;;;;;;;2.38;0.57;;;36.40;43.60;;;;;;5155158;27;20019;-85
2022/08/02 13:00:53;;;;;;;0.40;0.40;;;36.00;44.30;;;;;;5156214;27;20067;-86